createdAt,value
2018-09-12T00:00:06.979Z,0
2018-09-12T00:01:07.719Z,0
2018-09-12T00:02:08.444Z,0
2018-09-12T00:03:09.232Z,0
2018-09-12T00:04:10.228Z,0
2018-09-12T00:05:10.958Z,0
2018-09-12T00:06:11.691Z,0
2018-09-12T00:07:12.437Z,0
2018-09-12T00:08:13.230Z,0
2018-09-12T00:09:13.961Z,0
2018-09-12T00:10:14.942Z,0
2018-09-12T00:11:15.685Z,0
2018-09-12T00:12:16.417Z,0
2018-09-12T00:13:17.190Z,0
2018-09-12T00:14:17.928Z,0
2018-09-12T00:15:18.898Z,0
2018-09-12T00:16:19.610Z,0
2018-09-12T00:17:20.578Z,0
2018-09-12T00:18:21.328Z,0
2018-09-12T00:19:22.121Z,0
2018-09-12T00:20:22.847Z,0
2018-09-12T00:21:23.572Z,0
2018-09-12T00:22:24.316Z,0
2018-09-12T00:23:25.047Z,0
2018-09-12T00:24:25.837Z,0
2018-09-12T00:25:26.560Z,0
2018-09-12T00:26:27.296Z,0
2018-09-12T00:27:28.025Z,0
2018-09-12T00:28:29.000Z,0
2018-09-12T00:29:29.765Z,0
2018-09-12T00:30:30.753Z,0
2018-09-12T00:31:31.468Z,0
2018-09-12T00:32:32.192Z,0
2018-09-12T00:33:32.939Z,0
2018-09-12T00:34:33.677Z,0
2018-09-12T00:35:34.445Z,0
2018-09-12T00:36:35.169Z,0
2018-09-12T00:37:36.196Z,0
2018-09-12T00:38:36.912Z,0
2018-09-12T00:39:37.629Z,0
2018-09-12T00:40:38.409Z,0
2018-09-12T00:41:39.152Z,0
2018-09-12T00:42:39.865Z,0
2018-09-12T00:43:40.609Z,0
2018-09-12T00:44:41.640Z,0
2018-09-12T00:45:42.416Z,0
2018-09-12T00:46:43.153Z,0
2018-09-12T00:47:43.926Z,0
2018-09-12T00:48:44.651Z,0
2018-09-12T00:49:45.371Z,0
2018-09-12T00:50:46.090Z,0
2018-09-12T00:51:46.821Z,0
2018-09-12T00:52:47.553Z,0
2018-09-12T00:53:48.285Z,0
2018-09-12T00:54:49.018Z,0
2018-09-12T00:55:49.736Z,0
2018-09-12T00:56:50.730Z,0
2018-09-12T00:57:51.468Z,0
2018-09-12T00:58:52.191Z,0
2018-09-12T00:59:52.911Z,0
2018-09-12T01:00:53.637Z,0
2018-09-12T01:01:54.357Z,0
2018-09-12T01:02:55.093Z,0
2018-09-12T01:03:56.074Z,0
2018-09-12T01:04:57.037Z,0
2018-09-12T01:05:57.779Z,0
2018-09-12T01:06:58.524Z,0
2018-09-12T01:07:59.247Z,0
2018-09-12T01:08:59.969Z,0
2018-09-12T01:10:00.705Z,0
2018-09-12T01:11:01.422Z,0
2018-09-12T01:12:02.161Z,0
2018-09-12T01:13:02.884Z,0
2018-09-12T01:14:03.611Z,0
2018-09-12T01:15:04.584Z,0
2018-09-12T01:16:05.317Z,0
2018-09-12T01:17:06.044Z,0
2018-09-12T01:18:06.775Z,0
2018-09-12T01:19:07.753Z,0
2018-09-12T01:20:08.777Z,0
2018-09-12T01:21:09.466Z,0
2018-09-12T01:22:10.242Z,0
2018-09-12T01:23:10.960Z,0
2018-09-12T01:24:11.709Z,0
2018-09-12T01:25:12.430Z,0
2018-09-12T01:26:13.153Z,0
2018-09-12T01:27:13.875Z,0
2018-09-12T01:28:14.596Z,0
2018-09-12T01:29:15.595Z,0
2018-09-12T01:30:16.326Z,0
2018-09-12T01:31:17.054Z,0
2018-09-12T01:32:17.859Z,0
2018-09-12T01:33:18.588Z,0
2018-09-12T01:34:19.309Z,0
2018-09-12T01:35:20.046Z,0
2018-09-12T01:36:20.766Z,0
2018-09-12T01:37:21.534Z,0
2018-09-12T01:38:22.255Z,0
2018-09-12T01:39:22.985Z,0
2018-09-12T01:40:23.707Z,0
2018-09-12T01:41:24.809Z,0
2018-09-12T01:42:25.574Z,0
2018-09-12T01:43:26.295Z,0
2018-09-12T01:44:27.323Z,0
2018-09-12T01:45:28.127Z,0
2018-09-12T01:46:28.997Z,0
2018-09-12T01:47:29.826Z,0
2018-09-12T01:48:30.589Z,0
2018-09-12T01:49:31.693Z,0
2018-09-12T01:50:32.435Z,0
2018-09-12T01:51:33.211Z,0
2018-09-12T01:52:33.921Z,0
2018-09-12T01:53:34.639Z,0
2018-09-12T01:54:35.408Z,0
2018-09-12T01:55:36.131Z,0
2018-09-12T01:56:36.865Z,0
2018-09-12T01:57:37.611Z,0
2018-09-12T01:58:38.332Z,0
2018-09-12T01:59:39.047Z,0
2018-09-12T02:00:40.048Z,0
2018-09-12T02:01:40.777Z,0
2018-09-12T02:02:41.510Z,0
2018-09-12T02:03:42.247Z,0
2018-09-12T02:04:43.003Z,0
2018-09-12T02:05:43.770Z,0
2018-09-12T02:06:44.518Z,0
2018-09-12T02:07:45.242Z,0
2018-09-12T02:08:45.968Z,0
2018-09-12T02:09:46.685Z,0
2018-09-12T02:10:47.453Z,0
2018-09-12T02:11:48.178Z,0
2018-09-12T02:12:48.897Z,0
2018-09-12T02:13:49.619Z,0
2018-09-12T02:14:50.353Z,0
2018-09-12T02:15:51.062Z,0
2018-09-12T02:16:51.807Z,0
2018-09-12T02:17:52.529Z,0
2018-09-12T02:18:53.254Z,0
2018-09-12T02:19:53.975Z,0
2018-09-12T02:20:54.721Z,0
2018-09-12T02:21:55.446Z,0
2018-09-12T02:22:56.183Z,0
2018-09-12T02:23:56.907Z,0
2018-09-12T02:24:57.630Z,0
2018-09-12T02:25:58.356Z,0
2018-09-12T02:26:59.353Z,0
2018-09-12T02:28:00.066Z,0
2018-09-12T02:29:00.804Z,0
2018-09-12T02:30:01.520Z,0
2018-09-12T02:31:02.248Z,0
2018-09-12T02:32:02.966Z,0
2018-09-12T02:33:03.686Z,0
2018-09-12T02:34:04.415Z,0
2018-09-12T02:35:05.411Z,0
2018-09-12T02:36:06.140Z,0
2018-09-12T02:37:06.867Z,0
2018-09-12T02:38:07.577Z,0
2018-09-12T02:39:08.305Z,0
2018-09-12T02:40:09.013Z,0
2018-09-12T02:41:09.753Z,0
2018-09-12T02:42:10.469Z,0
2018-09-12T02:43:11.194Z,0
2018-09-12T02:44:11.944Z,0
2018-09-12T02:45:12.655Z,0
2018-09-12T02:46:13.391Z,0
2018-09-12T02:47:14.113Z,0
2018-09-12T02:48:14.893Z,0
2018-09-12T02:49:15.614Z,0
2018-09-12T02:50:16.338Z,0
2018-09-12T02:51:17.071Z,0
2018-09-12T02:52:18.047Z,0
2018-09-12T02:53:18.838Z,0
2018-09-12T02:54:19.554Z,0
2018-09-12T02:55:20.286Z,0
2018-09-12T02:56:21.015Z,0
2018-09-12T02:57:22.009Z,0
2018-09-12T02:58:22.780Z,0
2018-09-12T02:59:23.502Z,0
2018-09-12T03:00:24.276Z,0
2018-09-12T03:01:25.088Z,0
2018-09-12T03:02:25.950Z,0
2018-09-12T03:03:27.139Z,0
2018-09-12T03:04:28.258Z,0
2018-09-12T03:05:29.000Z,0
2018-09-12T03:06:30.260Z,0
2018-09-12T03:07:31.019Z,0
2018-09-12T03:08:32.114Z,0
2018-09-12T03:09:32.948Z,0
2018-09-12T03:10:33.818Z,0
2018-09-12T03:11:34.565Z,0
2018-09-12T03:12:35.731Z,0
2018-09-12T03:13:37.182Z,0
2018-09-12T03:14:37.941Z,0
2018-09-12T03:15:38.780Z,0
2018-09-12T03:16:39.509Z,0
2018-09-12T03:17:40.374Z,0
2018-09-12T03:18:41.098Z,0
2018-09-12T03:19:41.823Z,0
2018-09-12T03:20:42.679Z,0
2018-09-12T03:21:43.287Z,0
2018-09-12T03:22:44.013Z,0
2018-09-12T03:23:44.748Z,0
2018-09-12T03:24:45.530Z,0
2018-09-12T03:25:46.259Z,0
2018-09-12T03:26:46.973Z,0
2018-09-12T03:27:47.726Z,0
2018-09-12T03:28:48.458Z,0
2018-09-12T03:29:49.180Z,0
2018-09-12T03:30:49.931Z,0
2018-09-12T03:31:50.650Z,0
2018-09-12T03:32:51.364Z,0
2018-09-12T03:33:52.155Z,0
2018-09-12T03:34:53.109Z,0
2018-09-12T03:35:53.828Z,0
2018-09-12T03:36:54.816Z,0
2018-09-12T03:37:55.533Z,0
2018-09-12T03:38:56.258Z,0
2018-09-12T03:39:56.988Z,0
2018-09-12T03:40:57.727Z,0
2018-09-12T03:41:58.442Z,0
2018-09-12T03:42:59.169Z,0
2018-09-12T03:43:59.908Z,0
2018-09-12T03:45:00.634Z,0
2018-09-12T03:46:01.353Z,0
2018-09-12T03:47:02.081Z,0
2018-09-12T03:48:03.167Z,0
2018-09-12T03:49:03.784Z,0
2018-09-12T03:50:04.563Z,0
2018-09-12T03:51:05.287Z,0
2018-09-12T03:52:06.012Z,0
2018-09-12T03:53:06.742Z,0
2018-09-12T03:54:07.723Z,0
2018-09-12T03:55:08.483Z,0
2018-09-12T03:56:09.210Z,0
2018-09-12T03:57:10.191Z,0
2018-09-12T03:58:10.908Z,0
2018-09-12T03:59:11.885Z,0
2018-09-12T04:00:12.672Z,0
2018-09-12T04:01:13.404Z,0
2018-09-12T04:02:14.110Z,0
2018-09-12T04:03:14.852Z,0
2018-09-12T04:04:15.840Z,0
2018-09-12T04:05:16.657Z,0
2018-09-12T04:06:17.391Z,0
2018-09-12T04:07:18.108Z,0
2018-09-12T04:08:18.831Z,0
2018-09-12T04:09:19.553Z,0
2018-09-12T04:10:20.692Z,0
2018-09-12T04:11:21.410Z,0
2018-09-12T04:12:22.156Z,0
2018-09-12T04:13:22.870Z,0
2018-09-12T04:14:23.850Z,0
2018-09-12T04:15:24.565Z,0
2018-09-12T04:16:25.542Z,0
2018-09-12T04:17:26.269Z,0
2018-09-12T04:18:27.028Z,0
2018-09-12T04:19:27.754Z,0
2018-09-12T04:20:28.478Z,0
2018-09-12T04:21:29.646Z,0
2018-09-12T04:22:30.470Z,4
2018-09-12T04:23:31.300Z,4
2018-09-12T04:24:32.042Z,0
2018-09-12T04:25:32.931Z,4
2018-09-12T04:26:33.758Z,4
2018-09-12T04:27:34.504Z,4
2018-09-12T04:28:35.692Z,8
2018-09-12T04:29:36.427Z,8
2018-09-12T04:30:37.430Z,12
2018-09-12T04:31:38.607Z,12
2018-09-12T04:32:39.424Z,12
2018-09-12T04:33:40.185Z,16
2018-09-12T04:34:40.941Z,20
2018-09-12T04:35:41.793Z,24
2018-09-12T04:36:42.815Z,28
2018-09-12T04:37:43.545Z,36
2018-09-12T04:38:44.286Z,44
2018-09-12T04:39:45.014Z,56
2018-09-12T04:40:45.737Z,64
2018-09-12T04:41:46.461Z,76
2018-09-12T04:42:47.257Z,88
2018-09-12T04:43:47.916Z,104
2018-09-12T04:44:48.650Z,124
2018-09-12T04:45:49.370Z,140
2018-09-12T04:46:50.087Z,160
2018-09-12T04:47:50.819Z,180
2018-09-12T04:48:51.547Z,204
2018-09-12T04:49:52.275Z,228
2018-09-12T04:50:53.004Z,256
2018-09-12T04:51:53.788Z,280
2018-09-12T04:52:54.525Z,312
2018-09-12T04:53:55.262Z,344
2018-09-12T04:54:56.003Z,372
2018-09-12T04:55:56.755Z,396
2018-09-12T04:56:57.477Z,440
2018-09-12T04:57:58.201Z,488
2018-09-12T04:58:58.927Z,528
2018-09-12T04:59:59.964Z,568
2018-09-12T05:01:00.695Z,600
2018-09-12T05:02:01.669Z,644
2018-09-12T05:03:02.402Z,684
2018-09-12T05:04:03.133Z,720
2018-09-12T05:05:03.863Z,760
2018-09-12T05:06:04.590Z,800
2018-09-12T05:07:05.318Z,848
2018-09-12T05:08:06.053Z,900
2018-09-12T05:09:07.037Z,940
2018-09-12T05:10:07.902Z,972
2018-09-12T05:11:08.503Z,1000
2018-09-12T05:12:09.234Z,1036
2018-09-12T05:13:09.974Z,1080
2018-09-12T05:14:10.962Z,1116
2018-09-12T05:15:11.688Z,1160
2018-09-12T05:16:12.412Z,1196
2018-09-12T05:17:13.141Z,1236
2018-09-12T05:18:14.123Z,1312
2018-09-12T05:19:14.849Z,1416
2018-09-12T05:20:15.825Z,1520
2018-09-12T05:21:16.566Z,1604
2018-09-12T05:22:17.292Z,1656
2018-09-12T05:23:18.018Z,1648
2018-09-12T05:24:18.996Z,1604
2018-09-12T05:25:19.733Z,1580
2018-09-12T05:26:20.462Z,1568
2018-09-12T05:27:21.200Z,1628
2018-09-12T05:28:22.073Z,1720
2018-09-12T05:29:23.034Z,1812
2018-09-12T05:30:24.003Z,1908
2018-09-12T05:31:24.743Z,1968
2018-09-12T05:32:25.477Z,2000
2018-09-12T05:33:26.461Z,2020
2018-09-12T05:34:27.733Z,2064
2018-09-12T05:35:28.451Z,2160
2018-09-12T05:36:29.512Z,2280
2018-09-12T05:37:30.152Z,2488
2018-09-12T05:38:30.879Z,2572
2018-09-12T05:39:31.658Z,2692
2018-09-12T05:40:32.384Z,2752
2018-09-12T05:41:33.113Z,2612
2018-09-12T05:42:34.090Z,2408
2018-09-12T05:43:34.829Z,2368
2018-09-12T05:44:35.559Z,2444
2018-09-12T05:45:36.293Z,2704
2018-09-12T05:46:37.037Z,3192
2018-09-12T05:47:37.778Z,3556
2018-09-12T05:48:38.516Z,3616
2018-09-12T05:49:39.291Z,3496
2018-09-12T05:50:40.719Z,3572
2018-09-12T05:51:41.479Z,3888
2018-09-12T05:52:42.395Z,4384
2018-09-12T05:53:43.165Z,4704
2018-09-12T05:54:43.949Z,4904
2018-09-12T05:55:44.878Z,4984
2018-09-12T05:56:45.639Z,4740
2018-09-12T05:57:46.419Z,4452
2018-09-12T05:58:47.253Z,4368
2018-09-12T05:59:47.995Z,4244
2018-09-12T06:00:48.942Z,4532
2018-09-12T06:01:49.717Z,5312
2018-09-12T06:02:50.456Z,6656
2018-09-12T06:03:51.456Z,8160
2018-09-12T06:04:52.190Z,8428
2018-09-12T06:05:52.916Z,7888
2018-09-12T06:06:53.745Z,7468
2018-09-12T06:07:54.377Z,7868
2018-09-12T06:08:55.110Z,8256
2018-09-12T06:09:55.844Z,7444
2018-09-12T06:10:56.572Z,7124
2018-09-12T06:11:57.561Z,6580
2018-09-12T06:12:58.289Z,6156
2018-09-12T06:13:59.079Z,5676
2018-09-12T06:14:59.752Z,5548
2018-09-12T06:16:00.485Z,5728
2018-09-12T06:17:01.219Z,5936
2018-09-12T06:18:01.955Z,6036
2018-09-12T06:19:02.682Z,6200
2018-09-12T06:20:03.409Z,6168
2018-09-12T06:21:04.140Z,6912
2018-09-12T06:22:04.874Z,6852
2018-09-12T06:23:05.614Z,6412
2018-09-12T06:24:06.602Z,5800
2018-09-12T06:25:07.574Z,5480
2018-09-12T06:26:08.553Z,5876
2018-09-12T06:27:09.283Z,6312
2018-09-12T06:28:10.007Z,6316
2018-09-12T06:29:10.731Z,6192
2018-09-12T06:30:11.468Z,6944
2018-09-12T06:31:12.214Z,7708
2018-09-12T06:32:12.943Z,8580
2018-09-12T06:33:13.922Z,9500
2018-09-12T06:34:14.649Z,9504
2018-09-12T06:35:15.385Z,8500
2018-09-12T06:36:16.120Z,8308
2018-09-12T06:37:16.852Z,8572
2018-09-12T06:38:17.588Z,8240
2018-09-12T06:39:18.318Z,9528
2018-09-12T06:40:19.048Z,9696
2018-09-12T06:41:19.790Z,9948
2018-09-12T06:42:20.532Z,10384
2018-09-12T06:43:21.261Z,9096
2018-09-12T06:44:21.984Z,7756
2018-09-12T06:45:22.717Z,9080
2018-09-12T06:46:23.492Z,11100
2018-09-12T06:47:24.236Z,11420
2018-09-12T06:48:24.982Z,11344
2018-09-12T06:49:25.732Z,10204
2018-09-12T06:50:26.456Z,8640
2018-09-12T06:51:27.240Z,7284
2018-09-12T06:52:27.970Z,9220
2018-09-12T06:53:28.704Z,10788
2018-09-12T06:54:29.485Z,11224
2018-09-12T06:55:30.169Z,11368
2018-09-12T06:56:30.938Z,10392
2018-09-12T06:57:31.680Z,10616
2018-09-12T06:58:32.416Z,11868
2018-09-12T06:59:33.149Z,11224
2018-09-12T07:00:33.906Z,10176
2018-09-12T07:01:34.664Z,11664
2018-09-12T07:02:35.397Z,12404
2018-09-12T07:03:36.123Z,11556
2018-09-12T07:04:36.844Z,10716
2018-09-12T07:05:37.581Z,11532
2018-09-12T07:06:38.316Z,10756
2018-09-12T07:07:39.083Z,11052
2018-09-12T07:08:39.787Z,10480
2018-09-12T07:09:40.566Z,10392
2018-09-12T07:10:41.302Z,9932
2018-09-12T07:11:42.041Z,10276
2018-09-12T07:12:43.028Z,10188
2018-09-12T07:13:43.765Z,9348
2018-09-12T07:14:44.750Z,9260
2018-09-12T07:15:45.477Z,11480
2018-09-12T07:16:46.214Z,11104
2018-09-12T07:17:46.942Z,10964
2018-09-12T07:18:47.683Z,9716
2018-09-12T07:19:48.475Z,9304
2018-09-12T07:20:49.212Z,10084
2018-09-12T07:21:50.204Z,9908
2018-09-12T07:22:50.927Z,10548
2018-09-12T07:23:51.665Z,12344
2018-09-12T07:24:52.650Z,12752
2018-09-12T07:25:53.383Z,13168
2018-09-12T07:26:54.117Z,13192
2018-09-12T07:27:54.851Z,13312
2018-09-12T07:28:55.584Z,14376
2018-09-12T07:29:56.329Z,14988
2018-09-12T07:30:57.119Z,15940
2018-09-12T07:31:57.862Z,16916
2018-09-12T07:32:58.667Z,19040
2018-09-12T07:33:59.608Z,18272
2018-09-12T07:35:00.428Z,16504
2018-09-12T07:36:01.230Z,15072
2018-09-12T07:37:01.961Z,13956
2018-09-12T07:38:02.854Z,14028
2018-09-12T07:39:03.580Z,13804
2018-09-12T07:40:04.324Z,13672
2018-09-12T07:41:05.508Z,13748
2018-09-12T07:42:06.294Z,12852
2018-09-12T07:43:07.487Z,12160
2018-09-12T07:44:08.562Z,11892
2018-09-12T07:45:09.308Z,12200
2018-09-12T07:46:10.041Z,13304
2018-09-12T07:47:11.024Z,14816
2018-09-12T07:48:12.058Z,14768
2018-09-12T07:49:13.023Z,13720
2018-09-12T07:50:13.810Z,13728
2018-09-12T07:51:14.538Z,12096
2018-09-12T07:52:15.812Z,11304
2018-09-12T07:53:16.576Z,12772
2018-09-12T07:54:17.315Z,12760
2018-09-12T07:55:18.060Z,10324
2018-09-12T07:56:18.971Z,9748
2018-09-12T07:57:19.583Z,10592
2018-09-12T07:58:20.314Z,12260
2018-09-12T07:59:21.040Z,10964
2018-09-12T08:00:21.806Z,10596
2018-09-12T08:01:22.516Z,11240
2018-09-12T08:02:23.756Z,10872
2018-09-12T08:03:24.476Z,11576
2018-09-12T08:04:25.464Z,14520
2018-09-12T08:05:26.195Z,16072
2018-09-12T08:06:27.179Z,15856
2018-09-12T08:07:27.967Z,14288
2018-09-12T08:08:28.703Z,13852
2018-09-12T08:09:29.452Z,14036
2018-09-12T08:10:30.197Z,13556
2018-09-12T08:11:30.927Z,13196
2018-09-12T08:12:31.663Z,12916
2018-09-12T08:13:32.654Z,13408
2018-09-12T08:14:33.387Z,15068
2018-09-12T08:15:34.121Z,16288
2018-09-12T08:16:34.858Z,15484
2018-09-12T08:17:35.602Z,14624
2018-09-12T08:18:37.147Z,16324
2018-09-12T08:19:38.190Z,19584
2018-09-12T08:20:38.921Z,20448
2018-09-12T08:21:39.664Z,20736
2018-09-12T08:22:40.410Z,20928
2018-09-12T08:23:41.143Z,21536
2018-09-12T08:24:41.885Z,19968
2018-09-12T08:25:42.627Z,19040
2018-09-12T08:26:43.397Z,21280
2018-09-12T08:27:44.092Z,24128
2018-09-12T08:28:44.833Z,26720
2018-09-12T08:29:45.567Z,32000
2018-09-12T08:30:46.301Z,38304
2018-09-12T08:31:47.038Z,41888
2018-09-12T08:32:47.796Z,48224
2018-09-12T08:33:48.533Z,64256
2018-09-12T08:34:49.316Z,39360
2018-09-12T08:35:50.056Z,50304
2018-09-12T08:36:50.797Z,64160
2018-09-12T08:37:51.531Z,40032
2018-09-12T08:38:52.272Z,50208
2018-09-12T08:39:53.011Z,30880
2018-09-12T08:40:53.763Z,25696
2018-09-12T08:41:54.504Z,33696
2018-09-12T08:42:55.234Z,29856
2018-09-12T08:43:55.966Z,33952
2018-09-12T08:44:56.928Z,33952
2018-09-12T08:45:57.751Z,64320
2018-09-12T08:46:58.486Z,32864
2018-09-12T08:47:59.224Z,69088
2018-09-12T08:48:59.965Z,37888
2018-09-12T08:50:00.695Z,65760
2018-09-12T08:51:01.428Z,34144
2018-09-12T08:52:02.168Z,60480
2018-09-12T08:53:03.003Z,26272
2018-09-12T08:54:03.665Z,28896
2018-09-12T08:55:04.382Z,35872
2018-09-12T08:56:05.114Z,51424
2018-09-12T08:57:05.843Z,30528
2018-09-12T08:58:06.570Z,33568
2018-09-12T08:59:07.303Z,15288
2018-09-12T09:00:08.087Z,14928
2018-09-12T09:01:08.814Z,14516
2018-09-12T09:02:09.544Z,14688
2018-09-12T09:03:10.519Z,11812
2018-09-12T09:04:11.545Z,61696
2018-09-12T09:05:12.233Z,43584
2018-09-12T09:06:12.964Z,19648
2018-09-12T09:07:13.700Z,25248
2018-09-12T09:08:14.441Z,17904
2018-09-12T09:09:15.185Z,27904
2018-09-12T09:10:15.918Z,52736
2018-09-12T09:11:16.641Z,24576
2018-09-12T09:12:17.373Z,22944
2018-09-12T09:13:18.117Z,20896
2018-09-12T09:14:18.838Z,20352
2018-09-12T09:15:19.567Z,24704
2018-09-12T09:16:20.305Z,17600
2018-09-12T09:17:21.124Z,17764
2018-09-12T09:18:21.782Z,15888
2018-09-12T09:19:22.520Z,15960
2018-09-12T09:20:23.500Z,16408
2018-09-12T09:21:24.235Z,22688
2018-09-12T09:22:24.967Z,22240
2018-09-12T09:23:26.039Z,18248
2018-09-12T09:24:27.140Z,15084
2018-09-12T09:25:28.212Z,25568
2018-09-12T09:26:28.939Z,20864
2018-09-12T09:27:29.687Z,27296
2018-09-12T09:28:30.424Z,22720
2018-09-12T09:29:31.283Z,38656
2018-09-12T09:30:31.949Z,57152
2018-09-12T09:31:32.684Z,81408
2018-09-12T09:32:33.493Z,36640
2018-09-12T09:33:34.588Z,25952
2018-09-12T09:34:35.485Z,49280
2018-09-12T09:35:36.357Z,86752
2018-09-12T09:36:36.957Z,42240
2018-09-12T09:37:37.704Z,36160
2018-09-12T09:38:38.424Z,48608
2018-09-12T09:39:39.450Z,22592
2018-09-12T09:40:40.194Z,17952
2018-09-12T09:41:40.925Z,19392
2018-09-12T09:42:41.679Z,25824
2018-09-12T09:43:42.392Z,24128
2018-09-12T09:44:43.125Z,17340
2018-09-12T09:45:43.900Z,16468
2018-09-12T09:46:44.653Z,18336
2018-09-12T09:47:45.388Z,23456
2018-09-12T09:48:46.121Z,31680
2018-09-12T09:49:46.847Z,31488
2018-09-12T09:50:47.844Z,31200
2018-09-12T09:51:48.559Z,27072
2018-09-12T09:52:49.285Z,17760
2018-09-12T09:53:50.020Z,20096
2018-09-12T09:54:50.876Z,23776
2018-09-12T09:55:51.499Z,20768
2018-09-12T09:56:52.233Z,18240
2018-09-12T09:57:52.963Z,18080
2018-09-12T09:58:53.718Z,20736
2018-09-12T09:59:54.445Z,23904
2018-09-12T10:00:55.181Z,20832
2018-09-12T10:01:56.168Z,20448
2018-09-12T10:02:56.896Z,19040
2018-09-12T10:03:57.632Z,16188
2018-09-12T10:04:58.366Z,14916
2018-09-12T10:05:59.125Z,14664
2018-09-12T10:06:59.842Z,16216
2018-09-12T10:08:00.576Z,16320
2018-09-12T10:09:01.310Z,15960
2018-09-12T10:10:02.044Z,14796
2018-09-12T10:11:02.813Z,16288
2018-09-12T10:12:03.767Z,14912
2018-09-12T10:13:04.491Z,12348
2018-09-12T10:14:05.234Z,10052
2018-09-12T10:15:05.963Z,7900
2018-09-12T10:16:06.714Z,6736
2018-09-12T10:17:07.491Z,5808
2018-09-12T10:18:08.233Z,4932
2018-09-12T10:19:08.967Z,5532
2018-09-12T10:20:09.696Z,8472
2018-09-12T10:21:10.422Z,10092
2018-09-12T10:22:11.147Z,8748
2018-09-12T10:23:11.948Z,8188
2018-09-12T10:24:12.740Z,8648
2018-09-12T10:25:13.421Z,8932
2018-09-12T10:26:14.418Z,7908
2018-09-12T10:27:15.140Z,7036
2018-09-12T10:28:16.131Z,7160
2018-09-12T10:29:16.854Z,7460
2018-09-12T10:30:17.606Z,7712
2018-09-12T10:31:18.340Z,7704
2018-09-12T10:32:19.067Z,7296
2018-09-12T10:33:19.862Z,7088
2018-09-12T10:34:20.590Z,8492
2018-09-12T10:35:21.315Z,7440
2018-09-12T10:36:22.049Z,6684
2018-09-12T10:37:23.026Z,8112
2018-09-12T10:38:24.011Z,8492
2018-09-12T10:39:24.747Z,7956
2018-09-12T10:40:25.480Z,6916
2018-09-12T10:41:26.198Z,6216
2018-09-12T10:42:26.934Z,6432
2018-09-12T10:43:27.671Z,7108
2018-09-12T10:44:28.397Z,7284
2018-09-12T10:45:29.131Z,8204
2018-09-12T10:46:29.917Z,9072
2018-09-12T10:47:30.684Z,8620
2018-09-12T10:48:31.414Z,8388
2018-09-12T10:49:32.153Z,10324
2018-09-12T10:50:33.137Z,12520
2018-09-12T10:51:33.865Z,12484
2018-09-12T10:52:34.608Z,10672
2018-09-12T10:53:35.329Z,8192
2018-09-12T10:54:36.113Z,7072
2018-09-12T10:55:36.847Z,8960
2018-09-12T10:56:37.576Z,14076
2018-09-12T10:57:38.678Z,18336
2018-09-12T10:58:39.431Z,21504
2018-09-12T10:59:40.215Z,23904
2018-09-12T11:00:42.168Z,25760
2018-09-12T11:01:43.062Z,28928
2018-09-12T11:02:44.013Z,29760
2018-09-12T11:03:44.754Z,28544
2018-09-12T11:04:45.735Z,28128
2018-09-12T11:05:46.468Z,27872
2018-09-12T11:06:47.215Z,29440
2018-09-12T11:07:47.953Z,30464
2018-09-12T11:08:48.686Z,31136
2018-09-12T11:09:49.487Z,30944
2018-09-12T11:10:50.212Z,34496
2018-09-12T11:11:50.955Z,35456
2018-09-12T11:12:51.686Z,30592
2018-09-12T11:13:52.424Z,29120
2018-09-12T11:14:53.165Z,30272
2018-09-12T11:15:53.900Z,32512
2018-09-12T11:16:54.628Z,34176
2018-09-12T11:17:55.359Z,35872
2018-09-12T11:18:56.139Z,36608
2018-09-12T11:19:56.868Z,35104
2018-09-12T11:20:57.603Z,33344
2018-09-12T11:21:58.357Z,33440
2018-09-12T11:22:59.083Z,32576
2018-09-12T11:23:59.894Z,28480
2018-09-12T11:25:00.616Z,26528
2018-09-12T11:26:01.337Z,24992
2018-09-12T11:27:02.071Z,22592
2018-09-12T11:28:02.847Z,24416
2018-09-12T11:29:03.619Z,22912
2018-09-12T11:30:04.346Z,22464
2018-09-12T11:31:05.324Z,22816
2018-09-12T11:32:06.137Z,24000
2018-09-12T11:33:06.866Z,27232
2018-09-12T11:34:07.658Z,28896
2018-09-12T11:35:08.339Z,31968
2018-09-12T11:36:09.070Z,32512
2018-09-12T11:37:10.052Z,31136
2018-09-12T11:38:11.393Z,27584
2018-09-12T11:39:12.243Z,23776
2018-09-12T11:40:13.113Z,23392
2018-09-12T11:41:13.761Z,24352
2018-09-12T11:42:14.481Z,25792
2018-09-12T11:43:15.481Z,25984
2018-09-12T11:44:16.240Z,26080
2018-09-12T11:45:16.967Z,25376
2018-09-12T11:46:17.723Z,23872
2018-09-12T11:47:18.459Z,22400
2018-09-12T11:48:19.201Z,21248
2018-09-12T11:49:20.183Z,21952
2018-09-12T11:50:20.932Z,21664
2018-09-12T11:51:21.663Z,21440
2018-09-12T11:52:22.379Z,22912
2018-09-12T11:53:23.104Z,23872
2018-09-12T11:54:23.834Z,23616
2018-09-12T11:55:24.581Z,22976
2018-09-12T11:56:25.328Z,22688
2018-09-12T11:57:26.056Z,21472
2018-09-12T11:58:26.788Z,20576
2018-09-12T11:59:27.581Z,21056
2018-09-12T12:00:28.321Z,20384
2018-09-12T12:01:29.055Z,19328
2018-09-12T12:02:29.798Z,19424
2018-09-12T12:03:30.529Z,19296
2018-09-12T12:04:31.252Z,20192
2018-09-12T12:05:31.985Z,21952
2018-09-12T12:06:32.738Z,21600
2018-09-12T12:07:33.461Z,21248
2018-09-12T12:08:34.220Z,22336
2018-09-12T12:09:34.943Z,21664
2018-09-12T12:10:35.696Z,20928
2018-09-12T12:11:36.399Z,20416
2018-09-12T12:12:37.123Z,19744
2018-09-12T12:13:37.862Z,20512
2018-09-12T12:14:38.603Z,21856
2018-09-12T12:15:39.336Z,23264
2018-09-12T12:16:40.126Z,26336
2018-09-12T12:17:40.811Z,31744
2018-09-12T12:18:41.538Z,43840
2018-09-12T12:19:42.263Z,33792
2018-09-12T12:20:43.254Z,32672
2018-09-12T12:21:43.977Z,28832
2018-09-12T12:22:44.718Z,24512
2018-09-12T12:23:45.447Z,23072
2018-09-12T12:24:46.177Z,22656
2018-09-12T12:25:46.909Z,21856
2018-09-12T12:26:47.652Z,20224
2018-09-12T12:27:48.377Z,18944
2018-09-12T12:28:49.121Z,19264
2018-09-12T12:29:49.847Z,20544
2018-09-12T12:30:50.630Z,17656
2018-09-12T12:31:51.360Z,16016
2018-09-12T12:32:52.099Z,17228
2018-09-12T12:33:53.086Z,18400
2018-09-12T12:34:53.819Z,17660
2018-09-12T12:35:54.850Z,16140
2018-09-12T12:36:55.579Z,15708
2018-09-12T12:37:56.310Z,17324
2018-09-12T12:38:57.070Z,18816
2018-09-12T12:39:57.810Z,19456
2018-09-12T12:40:58.534Z,19232
2018-09-12T12:41:59.279Z,19360
2018-09-12T12:43:00.001Z,19232
2018-09-12T12:44:00.747Z,18208
2018-09-12T12:45:01.478Z,17348
2018-09-12T12:46:02.211Z,17656
2018-09-12T12:47:02.952Z,17032
2018-09-12T12:48:03.688Z,16444
2018-09-12T12:49:04.419Z,17036
2018-09-12T12:50:05.409Z,17160
2018-09-12T12:51:06.180Z,15652
2018-09-12T12:52:06.909Z,14264
2018-09-12T12:53:07.645Z,13232
2018-09-12T12:54:08.399Z,12388
2018-09-12T12:55:09.125Z,11660
2018-09-12T12:56:10.101Z,12788
2018-09-12T12:57:10.832Z,14316
2018-09-12T12:58:11.553Z,13992
2018-09-12T12:59:12.300Z,13128
2018-09-12T13:00:13.034Z,12328
2018-09-12T13:01:13.810Z,11960
2018-09-12T13:02:14.534Z,12236
2018-09-12T13:03:15.504Z,12700
2018-09-12T13:04:16.250Z,12796
2018-09-12T13:05:16.970Z,13452
2018-09-12T13:06:17.960Z,14460
2018-09-12T13:07:18.695Z,16036
2018-09-12T13:08:19.433Z,16992
2018-09-12T13:09:20.175Z,17760
2018-09-12T13:10:20.913Z,15136
2018-09-12T13:11:21.650Z,11260
2018-09-12T13:12:22.366Z,8868
2018-09-12T13:13:23.098Z,8132
2018-09-12T13:14:23.831Z,8268
2018-09-12T13:15:24.563Z,7964
2018-09-12T13:16:25.547Z,7724
2018-09-12T13:17:26.280Z,6724
2018-09-12T13:18:27.253Z,6920
2018-09-12T13:19:27.985Z,7824
2018-09-12T13:20:28.722Z,7752
2018-09-12T13:21:29.470Z,7144
2018-09-12T13:22:30.179Z,7220
2018-09-12T13:23:30.909Z,8016
2018-09-12T13:24:31.641Z,8920
2018-09-12T13:25:32.372Z,10040
2018-09-12T13:26:33.109Z,11440
2018-09-12T13:27:33.896Z,10528
2018-09-12T13:28:34.566Z,9736
2018-09-12T13:29:35.540Z,9460
2018-09-12T13:30:36.790Z,8556
2018-09-12T13:31:37.512Z,8276
2018-09-12T13:32:38.244Z,7468
2018-09-12T13:33:38.987Z,6864
2018-09-12T13:34:39.785Z,6396
2018-09-12T13:35:40.460Z,6088
2018-09-12T13:36:41.187Z,6512
2018-09-12T13:37:41.959Z,6620
2018-09-12T13:38:42.699Z,6300
2018-09-12T13:39:43.424Z,6064
2018-09-12T13:40:44.159Z,5412
2018-09-12T13:41:44.878Z,4868
2018-09-12T13:42:46.008Z,5096
2018-09-12T13:43:46.738Z,5768
2018-09-12T13:44:47.468Z,6852
2018-09-12T13:45:48.455Z,7808